Time;durP1;ratioP1;P1;durP2;ratioP2;P2;SDS_P1;SDS_P2;PMS_P1;PMS_P2;Temp;Humidity;BMP_temperature;BMP_pressure;BME280_temperature;BME280_humidity;BME280_pressure;Samples;Min_cycle;Max_cycle;Signal;HPM_P1;HPM_P2
2021/11/14 00:00:59;;;;;;;106.70;60.65;;;6.20;99.90;;;;;;5035785;28;20523;-73
2021/11/14 00:03:26;;;;;;;94.15;55.15;;;6.10;99.90;;;;;;5044736;28;20021;-73
2021/11/14 00:05:52;;;;;;;80.53;48.58;;;6.10;99.90;;;;;;5017087;28;20033;-73
2021/11/14 00:08:19;;;;;;;77.45;46.50;;;6.10;99.90;;;;;;5042646;28;20476;-73
2021/11/14 00:10:49;;;;;;;83.93;47.75;;;6.00;99.90;;;;;;5028699;28;20030;-73
2021/11/14 00:13:15;;;;;;;65.15;41.42;;;6.10;99.90;;;;;;5040242;28;20021;-73
2021/11/14 00:15:41;;;;;;;58.45;39.05;;;6.00;99.90;;;;;;5037555;28;20021;-73
2021/11/14 00:18:08;;;;;;;75.30;43.53;;;5.90;99.90;;;;;;5039255;28;20032;-73
2021/11/14 00:20:33;;;;;;;59.92;37.75;;;5.90;99.90;;;;;;5038362;28;20490;-73
2021/11/14 00:22:59;;;;;;;64.95;40.13;;;5.80;99.90;;;;;;5039864;28;20119;-74
2021/11/14 00:25:25;;;;;;;75.88;41.50;;;5.80;99.90;;;;;;5058491;28;20029;-73
2021/11/14 00:27:52;;;;;;;72.22;40.90;;;5.90;99.90;;;;;;5039805;28;20049;-73
2021/11/14 00:30:19;;;;;;;77.32;42.83;;;5.90;99.90;;;;;;5050049;28;20539;-72
2021/11/14 00:32:45;;;;;;;93.68;45.47;;;5.90;99.90;;;;;;5040140;28;20032;-72
2021/11/14 00:35:13;;;;;;;76.63;41.60;;;5.90;99.90;;;;;;5040482;28;20026;-73
2021/11/14 00:37:39;;;;;;;77.68;40.92;;;5.80;99.90;;;;;;5039450;28;20107;-72
2021/11/14 00:40:09;;;;;;;88.15;42.67;;;5.90;99.90;;;;;;5042874;28;20152;-73
2021/11/14 00:42:35;;;;;;;83.32;43.10;;;5.90;99.90;;;;;;5026224;28;20052;-73
2021/11/14 00:45:01;;;;;;;81.72;43.08;;;5.80;99.90;;;;;;5035861;28;20542;-74
2021/11/14 00:47:27;;;;;;;73.15;39.88;;;5.80;99.90;;;;;;5048258;28;20052;-73
2021/11/14 00:49:52;;;;;;;68.70;37.78;;;5.80;99.90;;;;;;5033809;28;20053;-74
2021/11/14 00:52:18;;;;;;;76.18;40.72;;;5.90;99.90;;;;;;5027189;28;20216;-74
2021/11/14 00:54:43;;;;;;;70.80;38.15;;;5.80;99.90;;;;;;5045773;28;20375;-73
2021/11/14 00:57:09;;;;;;;82.15;41.15;;;5.80;99.90;;;;;;5042411;28;20487;-73
2021/11/14 00:59:34;;;;;;;74.03;40.35;;;5.80;99.90;;;;;;5037349;28;20032;-73
2021/11/14 01:02:00;;;;;;;70.20;37.65;;;5.90;99.90;;;;;;5040971;28;20017;-73
2021/11/14 01:04:25;;;;;;;77.82;41.03;;;5.90;99.90;;;;;;5033180;28;20024;-73
2021/11/14 01:06:51;;;;;;;69.63;39.03;;;5.90;99.90;;;;;;5040642;28;20020;-73
2021/11/14 01:09:16;;;;;;;89.00;42.63;;;5.90;99.90;;;;;;5041408;28;20053;-74
2021/11/14 01:11:42;;;;;;;82.45;41.95;;;5.90;99.90;;;;;;5045962;28;20032;-73
2021/11/14 01:14:08;;;;;;;83.65;42.28;;;5.80;99.90;;;;;;5036635;28;20025;-72
2021/11/14 01:16:33;;;;;;;77.03;40.53;;;5.80;99.90;;;;;;5038726;28;20108;-73
2021/11/14 01:18:59;;;;;;;82.35;41.90;;;5.80;99.90;;;;;;5036947;28;20100;-74
2021/11/14 01:21:27;;;;;;;80.78;40.85;;;5.80;99.90;;;;;;5048516;28;20490;-73
2021/11/14 01:23:55;;;;;;;76.72;40.45;;;5.80;99.90;;;;;;5038562;28;20024;-74
2021/11/14 01:26:21;;;;;;;75.00;39.35;;;5.80;99.90;;;;;;5046805;28;20582;-74
2021/11/14 01:28:46;;;;;;;85.25;43.42;;;5.80;99.90;;;;;;5032002;28;20017;-74
2021/11/14 01:31:12;;;;;;;75.82;41.63;;;5.80;99.90;;;;;;5041068;28;20137;-74
2021/11/14 01:33:38;;;;;;;76.97;41.63;;;5.80;99.90;;;;;;5035937;28;20108;-73
2021/11/14 01:36:04;;;;;;;71.80;39.35;;;5.70;99.90;;;;;;5041345;28;20071;-73
2021/11/14 01:38:31;;;;;;;71.03;39.55;;;5.70;99.90;;;;;;5031758;28;20025;-73
2021/11/14 01:40:59;;;;;;;77.20;40.30;;;5.70;99.90;;;;;;5035811;28;20028;-73
2021/11/14 01:43:29;;;;;;;77.82;39.55;;;5.70;99.90;;;;;;5040848;28;20026;-73
2021/11/14 01:45:55;;;;;;;76.53;40.58;;;5.70;99.90;;;;;;5040356;28;20070;-73
2021/11/14 01:48:22;;;;;;;71.82;37.47;;;5.70;99.90;;;;;;5038794;28;20492;-73
2021/11/14 01:50:48;;;;;;;71.80;38.63;;;5.70;99.90;;;;;;5036572;28;20126;-73
2021/11/14 01:53:14;;;;;;;74.82;40.63;;;5.70;99.90;;;;;;5039690;28;20534;-73
2021/11/14 01:55:44;;;;;;;80.30;40.78;;;5.90;99.90;;;;;;5045928;28;20662;-73
2021/11/14 01:58:16;;;;;;;82.78;41.00;;;5.70;99.90;;;;;;5040532;28;20109;-74
2021/11/14 02:00:52;;;;;;;77.25;40.90;;;5.80;99.90;;;;;;5046669;28;20017;-74
2021/11/14 02:03:18;;;;;;;81.32;40.53;;;5.70;99.90;;;;;;5050207;28;20012;-74
2021/11/14 02:05:44;;;;;;;92.68;42.75;;;5.70;99.90;;;;;;5042000;28;20026;-74
2021/11/14 02:08:11;;;;;;;77.30;37.83;;;5.60;99.90;;;;;;5040745;28;20029;-74
2021/11/14 02:10:38;;;;;;;74.03;39.63;;;5.60;99.90;;;;;;5045077;28;20071;-74
2021/11/14 02:13:04;;;;;;;78.63;39.40;;;5.60;99.90;;;;;;5047143;28;20016;-73
2021/11/14 02:15:30;;;;;;;76.60;39.17;;;5.70;99.90;;;;;;5041928;28;20021;-74
2021/11/14 02:17:56;;;;;;;71.47;37.65;;;5.60;99.90;;;;;;5043847;28;20025;-74
2021/11/14 02:20:23;;;;;;;66.05;36.25;;;5.60;99.90;;;;;;5040917;28;20387;-73
2021/11/14 02:22:48;;;;;;;71.22;36.22;;;5.60;99.90;;;;;;5040179;28;20538;-73
2021/11/14 02:25:17;;;;;;;70.82;36.58;;;5.60;99.90;;;;;;5041955;28;20025;-74
2021/11/14 02:27:44;;;;;;;60.88;35.13;;;5.50;99.90;;;;;;5044793;28;20045;-74
2021/11/14 02:30:12;;;;;;;73.45;38.22;;;5.60;99.90;;;;;;5040518;28;20021;-74
2021/11/14 02:32:39;;;;;;;76.00;37.45;;;5.70;99.90;;;;;;5040473;28;20570;-73
2021/11/14 02:35:06;;;;;;;67.93;35.75;;;5.60;99.90;;;;;;5033214;28;20531;-73
2021/11/14 02:37:31;;;;;;;63.70;35.45;;;5.60;99.90;;;;;;5037943;28;20029;-74
2021/11/14 02:39:57;;;;;;;65.72;35.05;;;5.70;99.90;;;;;;5034003;28;20120;-73
2021/11/14 02:42:23;;;;;;;69.50;35.65;;;5.70;99.90;;;;;;5030518;28;20029;-73
2021/11/14 02:44:48;;;;;;;65.10;34.47;;;5.70;99.90;;;;;;5019516;28;20026;-73
2021/11/14 02:47:14;;;;;;;67.55;34.67;;;5.80;99.90;;;;;;5022740;28;20100;-73
2021/11/14 02:49:39;;;;;;;70.43;36.72;;;5.80;99.90;;;;;;5015145;28;20025;-73
2021/11/14 02:52:06;;;;;;;66.07;35.67;;;5.90;99.90;;;;;;5021511;28;20034;-73
2021/11/14 02:54:32;;;;;;;68.35;35.65;;;5.90;99.90;;;;;;5029581;28;20109;-73
2021/11/14 02:56:58;;;;;;;80.32;37.90;;;5.90;99.90;;;;;;5021285;28;20029;-74
2021/11/14 02:59:23;;;;;;;81.05;37.28;;;6.00;99.90;;;;;;5029212;28;20432;-74
2021/11/14 03:01:53;;;;;;;74.63;36.95;;;5.90;99.90;;;;;;5021610;28;20060;-74
2021/11/14 03:04:23;;;;;;;71.15;35.47;;;5.90;99.90;;;;;;5026446;28;20045;-74
2021/11/14 03:06:52;;;;;;;83.38;37.53;;;5.80;99.90;;;;;;5023387;28;20029;-73
2021/11/14 03:09:18;;;;;;;84.30;39.00;;;5.80;99.90;;;;;;5014929;28;20678;-74
2021/11/14 03:11:44;;;;;;;83.97;37.78;;;5.80;99.90;;;;;;5023525;28;20025;-74
2021/11/14 03:14:10;;;;;;;86.38;39.38;;;5.80;99.90;;;;;;5026905;28;20029;-74
2021/11/14 03:16:35;;;;;;;72.35;36.97;;;5.70;99.90;;;;;;5021858;28;20416;-74
2021/11/14 03:19:01;;;;;;;79.43;38.30;;;5.80;99.90;;;;;;5018929;28;20021;-74
2021/11/14 03:21:28;;;;;;;77.47;38.35;;;5.80;99.90;;;;;;5021339;28;20361;-74
2021/11/14 03:23:55;;;;;;;81.45;36.53;;;5.80;99.90;;;;;;5024632;28;20064;-74
2021/11/14 03:26:22;;;;;;;77.80;38.85;;;5.80;99.90;;;;;;5023110;28;20030;-73
2021/11/14 03:28:48;;;;;;;75.25;36.97;;;5.80;99.90;;;;;;5024244;28;20094;-73
2021/11/14 03:31:13;;;;;;;73.65;34.63;;;5.80;99.90;;;;;;5031832;28;20476;-74
2021/11/14 03:33:40;;;;;;;54.60;30.02;;;5.80;99.90;;;;;;5019751;28;20033;-73
2021/11/14 03:36:13;;;;;;;60.70;30.80;;;5.70;99.90;;;;;;5031934;28;20095;-73
2021/11/14 03:38:42;;;;;;;65.35;32.75;;;5.80;99.90;;;;;;5031822;28;20031;-74
2021/11/14 03:41:12;;;;;;;63.55;32.70;;;5.80;99.90;;;;;;5018476;28;20076;-74
2021/11/14 03:43:38;;;;;;;53.30;29.50;;;5.80;99.90;;;;;;5024598;28;20044;-73
2021/11/14 03:46:05;;;;;;;63.65;34.88;;;5.90;99.90;;;;;;5025886;28;20471;-73
2021/11/14 03:48:31;;;;;;;68.97;38.05;;;5.90;99.90;;;;;;5024623;28;20057;-73
2021/11/14 03:50:57;;;;;;;54.90;31.30;;;5.90;99.90;;;;;;5024958;28;20392;-73
2021/11/14 03:53:23;;;;;;;64.63;32.35;;;5.90;99.90;;;;;;5019305;28;20029;-74
2021/11/14 03:55:51;;;;;;;50.05;28.38;;;6.00;99.90;;;;;;5017078;28;20136;-74
2021/11/14 03:58:17;;;;;;;56.58;30.52;;;5.90;99.90;;;;;;5023881;28;20447;-72
2021/11/14 04:00:45;;;;;;;59.63;32.28;;;6.00;99.90;;;;;;5025901;28;20096;-71
2021/11/14 04:03:11;;;;;;;63.60;31.98;;;6.00;99.90;;;;;;5031636;28;20028;-71
2021/11/14 04:05:39;;;;;;;75.63;33.88;;;5.90;99.90;;;;;;5031521;28;20018;-72
2021/11/14 04:08:10;;;;;;;75.25;34.55;;;5.90;99.90;;;;;;5031734;28;20443;-71
2021/11/14 04:10:36;;;;;;;70.72;33.47;;;5.80;99.90;;;;;;5028217;28;20025;-71
2021/11/14 04:13:02;;;;;;;70.28;32.08;;;5.90;99.90;;;;;;5021707;28;20033;-73
2021/11/14 04:15:27;;;;;;;75.32;33.03;;;5.90;99.90;;;;;;5030726;28;20034;-72
2021/11/14 04:17:56;;;;;;;65.97;31.48;;;5.80;99.90;;;;;;5020227;28;20036;-74
2021/11/14 04:20:25;;;;;;;67.40;31.70;;;5.80;99.90;;;;;;5014738;28;20118;-73
2021/11/14 04:22:52;;;;;;;72.90;34.05;;;5.80;99.90;;;;;;5021018;28;20049;-74
2021/11/14 04:25:18;;;;;;;70.45;32.70;;;5.80;99.90;;;;;;5018185;28;20022;-75
2021/11/14 04:27:43;;;;;;;66.30;33.15;;;5.80;99.90;;;;;;5031505;28;20048;-74
2021/11/14 04:30:09;;;;;;;72.60;35.75;;;5.90;99.90;;;;;;5031428;28;20040;-74
2021/11/14 04:32:35;;;;;;;69.78;35.13;;;5.90;99.90;;;;;;5021922;28;20073;-73
2021/11/14 04:35:01;;;;;;;56.78;30.70;;;5.80;99.90;;;;;;5027997;28;20029;-74
2021/11/14 04:37:26;;;;;;;50.03;28.48;;;5.70;99.90;;;;;;5031206;28;20547;-74
2021/11/14 04:39:52;;;;;;;43.20;25.65;;;5.70;99.90;;;;;;5015441;28;20141;-74
2021/11/14 04:42:18;;;;;;;45.25;26.83;;;5.80;99.90;;;;;;5020847;28;20077;-74
2021/11/14 04:44:44;;;;;;;47.10;27.38;;;5.80;99.90;;;;;;5028806;28;20029;-73
2021/11/14 04:47:09;;;;;;;42.53;24.77;;;5.80;99.90;;;;;;5011552;28;20033;-72
2021/11/14 04:49:35;;;;;;;46.08;26.65;;;5.80;99.90;;;;;;5011356;28;20088;-72
2021/11/14 04:52:00;;;;;;;49.17;25.52;;;5.80;99.90;;;;;;5011277;28;20100;-73
2021/11/14 04:54:27;;;;;;;48.20;26.55;;;5.80;99.90;;;;;;5026928;28;20040;-73
2021/11/14 04:56:52;;;;;;;46.60;26.13;;;5.90;99.90;;;;;;5022066;28;20069;-72
2021/11/14 04:59:18;;;;;;;42.45;23.90;;;5.90;99.90;;;;;;5024736;28;20057;-73
2021/11/14 05:01:43;;;;;;;46.67;26.73;;;5.80;99.90;;;;;;5019717;28;20017;-73
2021/11/14 05:04:09;;;;;;;41.95;24.77;;;5.80;99.90;;;;;;5031231;28;20511;-72
2021/11/14 05:06:35;;;;;;;44.70;25.77;;;5.80;99.90;;;;;;5026277;28;20061;-73
2021/11/14 05:09:01;;;;;;;43.65;24.50;;;5.80;99.90;;;;;;5028347;28;20022;-74
2021/11/14 05:11:27;;;;;;;44.42;25.75;;;5.80;99.90;;;;;;5021688;28;20397;-73
2021/11/14 05:13:53;;;;;;;42.47;27.83;;;5.90;99.90;;;;;;5021271;28;20095;-73
2021/11/14 05:16:18;;;;;;;45.85;25.95;;;5.90;99.90;;;;;;5026355;28;20033;-72
2021/11/14 05:18:44;;;;;;;42.90;24.88;;;5.90;99.90;;;;;;5014639;28;20477;-72
2021/11/14 05:21:10;;;;;;;40.33;23.48;;;5.80;99.90;;;;;;5022426;28;20029;-74
2021/11/14 05:23:37;;;;;;;46.75;29.00;;;5.80;99.90;;;;;;5033233;28;20025;-72
2021/11/14 05:26:02;;;;;;;43.95;28.40;;;5.90;99.90;;;;;;5022534;28;20018;-72
2021/11/14 05:28:28;;;;;;;46.63;27.00;;;5.90;99.90;;;;;;5049625;28;20052;-72
2021/11/14 05:30:53;;;;;;;44.95;28.02;;;5.90;99.90;;;;;;5034091;28;20376;-72
2021/11/14 05:33:19;;;;;;;44.08;25.38;;;5.80;99.90;;;;;;5034099;28;20088;-72
2021/11/14 05:35:46;;;;;;;53.25;28.58;;;5.80;99.90;;;;;;5034206;28;20400;-73
2021/11/14 05:38:11;;;;;;;48.70;27.45;;;5.90;99.90;;;;;;5031265;28;20489;-73
2021/11/14 05:40:37;;;;;;;46.17;27.23;;;5.80;99.90;;;;;;5023251;28;20071;-73
2021/11/14 05:43:03;;;;;;;55.72;29.75;;;5.80;99.90;;;;;;5020899;28;20014;-73
2021/11/14 05:45:29;;;;;;;50.00;28.58;;;5.80;99.90;;;;;;5024697;28;20037;-72
2021/11/14 05:47:55;;;;;;;50.00;28.13;;;5.80;99.90;;;;;;5030051;28;20111;-72
2021/11/14 05:50:21;;;;;;;51.72;27.05;;;5.90;99.90;;;;;;5024500;28;20423;-72
2021/11/14 05:52:46;;;;;;;52.05;26.95;;;5.90;99.90;;;;;;5016674;28;20487;-73
2021/11/14 05:55:13;;;;;;;59.55;29.73;;;5.90;99.90;;;;;;5024091;28;20025;-72
2021/11/14 05:58:04;;;;;;;49.25;27.35;;;5.80;99.90;;;;;;5027235;28;20045;-72
2021/11/14 06:00:32;;;;;;;50.55;28.10;;;5.80;99.90;;;;;;5025131;28;20124;-70
2021/11/14 06:03:05;;;;;;;52.28;29.60;;;5.80;99.90;;;;;;5033614;28;20101;-70
2021/11/14 06:05:35;;;;;;;53.28;30.92;;;5.80;99.90;;;;;;5019971;28;20492;-72
2021/11/14 06:08:01;;;;;;;57.75;31.10;;;5.70;99.90;;;;;;5021345;28;20499;-72
2021/11/14 06:10:26;;;;;;;50.97;30.27;;;5.70;99.90;;;;;;5019305;28;20029;-74
2021/11/14 06:12:52;;;;;;;56.03;31.27;;;5.70;99.90;;;;;;5020984;28;20025;-73
2021/11/14 06:15:20;;;;;;;56.72;30.67;;;5.80;99.90;;;;;;5019279;28;20040;-73
2021/11/14 06:17:46;;;;;;;58.33;31.80;;;5.80;99.90;;;;;;5021045;28;20040;-74
2021/11/14 06:20:12;;;;;;;48.65;29.67;;;5.80;99.90;;;;;;5018766;28;20105;-74
2021/11/14 06:22:38;;;;;;;63.50;31.75;;;5.80;99.90;;;;;;5033214;28;20030;-74
2021/11/14 06:25:05;;;;;;;59.95;32.08;;;5.90;99.90;;;;;;5018818;28;20431;-74
2021/11/14 06:27:30;;;;;;;51.38;29.70;;;5.80;99.90;;;;;;5020009;28;20025;-74
2021/11/14 06:29:56;;;;;;;55.20;30.77;;;5.80;99.90;;;;;;5030912;28;20159;-74
2021/11/14 06:32:22;;;;;;;57.20;31.25;;;5.90;99.90;;;;;;5020891;28;20454;-73
2021/11/14 06:34:47;;;;;;;55.85;31.92;;;5.90;99.90;;;;;;5031803;28;20036;-74
2021/11/14 06:37:13;;;;;;;62.60;31.45;;;5.90;99.90;;;;;;5033033;28;20026;-74
2021/11/14 06:39:41;;;;;;;59.95;32.45;;;5.90;99.90;;;;;;5019871;28;20018;-74
2021/11/14 06:42:07;;;;;;;57.00;32.75;;;5.90;99.90;;;;;;5031496;28;20503;-74
2021/11/14 06:44:34;;;;;;;62.72;33.60;;;5.90;99.90;;;;;;5031955;28;20022;-74
2021/11/14 06:46:59;;;;;;;60.38;33.67;;;5.90;99.90;;;;;;5022648;28;20642;-74
2021/11/14 06:49:25;;;;;;;64.20;33.25;;;5.90;99.90;;;;;;5019503;28;20041;-74
2021/11/14 06:51:51;;;;;;;65.05;32.58;;;6.00;99.90;;;;;;5024699;28;20477;-74
2021/11/14 06:54:18;;;;;;;63.42;33.75;;;6.00;99.90;;;;;;5013005;28;20113;-74
2021/11/14 06:56:43;;;;;;;61.85;32.47;;;6.00;99.90;;;;;;5032559;28;20029;-74
2021/11/14 06:59:09;;;;;;;63.00;34.85;;;6.00;99.90;;;;;;5019376;28;20044;-74
2021/11/14 07:01:35;;;;;;;61.33;33.97;;;6.00;99.90;;;;;;5024704;28;20025;-74
2021/11/14 07:04:02;;;;;;;57.15;33.15;;;6.00;99.90;;;;;;5027039;28;20018;-74
2021/11/14 07:06:27;;;;;;;58.13;33.08;;;6.00;99.90;;;;;;5025029;28;20014;-74
2021/11/14 07:08:53;;;;;;;61.40;33.70;;;6.00;99.90;;;;;;5025147;28;20365;-74
2021/11/14 07:11:18;;;;;;;66.07;35.08;;;6.10;99.90;;;;;;5019635;28;20040;-73
2021/11/14 07:13:46;;;;;;;61.55;33.30;;;6.20;99.90;;;;;;5019082;28;20065;-73
2021/11/14 07:16:11;;;;;;;60.63;32.30;;;6.00;99.90;;;;;;5025351;28;20034;-74
2021/11/14 07:18:37;;;;;;;59.00;34.10;;;6.10;99.90;;;;;;5026127;28;20436;-74
2021/11/14 07:21:03;;;;;;;63.55;34.10;;;6.10;99.90;;;;;;5019252;28;20484;-74
2021/11/14 07:23:28;;;;;;;61.05;34.03;;;6.20;99.90;;;;;;5018739;28;20033;-73
2021/11/14 07:25:54;;;;;;;61.22;32.88;;;6.20;99.90;;;;;;5024157;28;20685;-73
2021/11/14 07:28:19;;;;;;;59.03;32.17;;;6.20;99.90;;;;;;5025406;28;20108;-74
2021/11/14 07:30:45;;;;;;;60.95;31.35;;;6.20;99.90;;;;;;5025177;28;20045;-73
2021/11/14 07:33:11;;;;;;;58.20;29.75;;;6.30;99.90;;;;;;5025697;28;20422;-73
2021/11/14 07:35:37;;;;;;;52.28;29.65;;;6.30;99.90;;;;;;5032465;28;20018;-73
2021/11/14 07:38:03;;;;;;;57.97;32.72;;;6.30;99.90;;;;;;5038468;28;20030;-73
2021/11/14 07:40:29;;;;;;;63.33;34.63;;;6.40;99.90;;;;;;5032013;28;20029;-73
2021/11/14 07:42:55;;;;;;;65.15;35.03;;;6.40;99.90;;;;;;5030138;28;20155;-73
2021/11/14 07:45:22;;;;;;;68.93;35.20;;;6.30;99.90;;;;;;5019141;28;20563;-74
2021/11/14 07:47:48;;;;;;;62.05;33.13;;;6.30;99.90;;;;;;5018434;28;20372;-73
2021/11/14 07:50:16;;;;;;;57.63;31.88;;;6.40;99.90;;;;;;5021953;28;20076;-73
2021/11/14 07:52:43;;;;;;;58.60;32.60;;;6.40;99.90;;;;;;5030052;28;20514;-73
2021/11/14 07:55:09;;;;;;;63.00;33.15;;;6.40;99.90;;;;;;5022978;28;20033;-73
2021/11/14 07:57:36;;;;;;;61.03;32.25;;;6.50;99.90;;;;;;5031597;28;20036;-73
2021/11/14 08:00:04;;;;;;;68.05;35.30;;;6.50;99.90;;;;;;5023195;28;20383;-73
2021/11/14 08:02:29;;;;;;;60.85;33.17;;;6.50;99.90;;;;;;5031369;28;20048;-73
2021/11/14 08:04:55;;;;;;;67.80;35.83;;;6.50;99.90;;;;;;5031680;28;20033;-73
2021/11/14 08:07:21;;;;;;;69.88;35.55;;;6.50;99.90;;;;;;5031478;28;20079;-73
2021/11/14 08:09:46;;;;;;;62.83;34.38;;;6.60;99.90;;;;;;5022846;28;20052;-73
2021/11/14 08:12:12;;;;;;;62.58;34.40;;;6.60;99.90;;;;;;5024796;28;20384;-72
2021/11/14 08:14:37;;;;;;;61.28;33.40;;;6.70;99.90;;;;;;5019580;28;20026;-73
2021/11/14 08:17:03;;;;;;;57.67;31.88;;;6.70;99.90;;;;;;5018095;28;20033;-74
2021/11/14 08:19:29;;;;;;;64.05;35.88;;;6.70;99.90;;;;;;5022842;28;20029;-73
2021/11/14 08:21:54;;;;;;;61.38;33.33;;;6.70;99.90;;;;;;5024724;28;20038;-73
2021/11/14 08:24:20;;;;;;;67.05;37.90;;;6.80;99.90;;;;;;5019233;28;20141;-73
2021/11/14 08:26:45;;;;;;;101.82;59.58;;;6.80;99.90;;;;;;5016100;28;20026;-74
2021/11/14 08:29:11;;;;;;;71.75;40.67;;;6.80;99.90;;;;;;5020513;28;20079;-74
2021/11/14 08:31:38;;;;;;;68.57;36.22;;;6.80;99.90;;;;;;5018289;28;20029;-73
2021/11/14 08:34:05;;;;;;;90.55;55.13;;;6.90;99.90;;;;;;5031456;28;20018;-73
2021/11/14 08:36:30;;;;;;;90.45;54.38;;;6.90;99.90;;;;;;5030244;28;20028;-73
2021/11/14 08:38:56;;;;;;;55.60;30.95;;;7.00;99.90;;;;;;5022744;28;20443;-73
2021/11/14 08:41:24;;;;;;;60.22;31.70;;;7.00;99.90;;;;;;5028535;28;20524;-73
2021/11/14 08:43:50;;;;;;;70.78;40.60;;;7.10;99.90;;;;;;5024170;28;20014;-73
2021/11/14 08:46:16;;;;;;;77.60;45.83;;;7.10;99.90;;;;;;5021880;28;20037;-73
2021/11/14 08:48:42;;;;;;;53.83;31.67;;;7.20;99.90;;;;;;5026162;28;20026;-73
2021/11/14 08:51:08;;;;;;;58.50;33.22;;;7.20;99.90;;;;;;5028401;28;20022;-73
2021/11/14 08:53:34;;;;;;;57.47;30.67;;;7.30;99.90;;;;;;5024493;28;20542;-73
2021/11/14 08:56:01;;;;;;;57.75;30.08;;;7.40;99.90;;;;;;5021808;28;20436;-76
2021/11/14 08:58:28;;;;;;;64.25;34.88;;;7.40;99.90;;;;;;5035449;28;20045;-74
2021/11/14 09:00:54;;;;;;;68.00;37.78;;;7.40;99.90;;;;;;5034540;28;20026;-74
2021/11/14 09:03:20;;;;;;;82.97;44.75;;;7.40;99.90;;;;;;5025270;28;20496;-74
2021/11/14 09:05:46;;;;;;;66.05;30.60;;;7.40;99.90;;;;;;5027114;28;20030;-74
2021/11/14 09:08:12;;;;;;;59.78;28.77;;;7.40;99.90;;;;;;5024325;28;20037;-75
2021/11/14 09:10:40;;;;;;;56.92;27.92;;;7.40;99.90;;;;;;5021204;28;20025;-77
2021/11/14 09:13:06;;;;;;;55.25;29.00;;;7.40;99.90;;;;;;5024728;28;20057;-74
2021/11/14 09:15:32;;;;;;;59.92;28.73;;;7.50;99.90;;;;;;5027879;28;20036;-74
2021/11/14 09:17:59;;;;;;;55.75;26.95;;;7.50;99.90;;;;;;5026646;28;20022;-74
2021/11/14 09:20:24;;;;;;;51.90;26.27;;;7.60;99.90;;;;;;5022506;28;20045;-74
2021/11/14 09:22:50;;;;;;;51.10;25.45;;;7.70;99.90;;;;;;5034341;28;20081;-74
2021/11/14 09:25:17;;;;;;;48.97;25.67;;;7.70;99.90;;;;;;5019521;28;20060;-74
2021/11/14 09:27:42;;;;;;;51.22;25.33;;;7.70;99.90;;;;;;5024212;28;20436;-75
2021/11/14 09:30:09;;;;;;;48.90;25.10;;;7.80;99.90;;;;;;5027809;28;20022;-74
2021/11/14 09:32:36;;;;;;;46.40;24.83;;;7.80;99.90;;;;;;5024131;28;20035;-74
2021/11/14 09:35:03;;;;;;;45.05;23.95;;;7.80;99.90;;;;;;5034186;28;20113;-74
2021/11/14 09:37:28;;;;;;;46.35;24.63;;;7.80;99.90;;;;;;5032825;28;20030;-74
2021/11/14 09:39:54;;;;;;;49.75;24.60;;;7.80;99.90;;;;;;5020768;28;20091;-74
2021/11/14 09:42:23;;;;;;;50.15;25.27;;;7.90;99.90;;;;;;5034023;28;20553;-75
2021/11/14 09:44:50;;;;;;;46.92;25.25;;;7.90;99.90;;;;;;5030561;28;20384;-74
2021/11/14 09:47:16;;;;;;;46.45;23.85;;;7.90;99.90;;;;;;5024384;28;20026;-74
2021/11/14 09:49:42;;;;;;;47.20;24.90;;;8.00;99.90;;;;;;5036127;28;20109;-74
2021/11/14 09:52:07;;;;;;;50.95;26.40;;;8.00;99.90;;;;;;5033128;28;20044;-75
2021/11/14 09:54:34;;;;;;;44.05;24.98;;;8.00;99.90;;;;;;5029349;28;20034;-74
2021/11/14 09:57:00;;;;;;;46.33;24.23;;;8.10;99.90;;;;;;5023908;28;20045;-74
2021/11/14 09:59:27;;;;;;;48.05;24.55;;;8.10;99.90;;;;;;5020475;28;20021;-74
2021/11/14 10:01:55;;;;;;;45.50;23.45;;;8.20;99.90;;;;;;5023421;28;20097;-74
2021/11/14 10:04:21;;;;;;;46.38;24.48;;;8.30;99.90;;;;;;5027324;28;20084;-74
2021/11/14 10:07:08;;;;;;;46.60;24.20;;;8.30;99.90;;;;;;5023853;28;20026;-74
2021/11/14 10:09:39;;;;;;;41.97;23.27;;;8.40;99.90;;;;;;5032269;28;20025;-74
2021/11/14 10:12:31;;;;;;;38.85;22.27;;;8.50;99.90;;;;;;5020042;28;20021;-74
2021/11/14 10:15:14;;;;;;;32.97;20.45;;;8.50;99.90;;;;;;5022981;28;20018;-74
2021/11/14 10:17:46;;;;;;;36.08;20.38;;;8.50;99.90;;;;;;5025537;28;20076;-74
2021/11/14 10:20:23;;;;;;;32.05;19.77;;;8.50;99.90;;;;;;5026272;28;20108;-74
2021/11/14 10:23:17;;;;;;;32.33;18.95;;;8.60;99.90;;;;;;5024600;28;20022;-74
2021/11/14 10:25:44;;;;;;;29.88;18.65;;;8.60;99.90;;;;;;5025482;28;20088;-74
2021/11/14 10:28:10;;;;;;;31.98;17.90;;;8.70;99.90;;;;;;5025791;28;20475;-74
2021/11/14 10:30:41;;;;;;;28.73;18.25;;;8.70;99.90;;;;;;5014051;28;20096;-74
2021/11/14 10:33:09;;;;;;;27.27;17.25;;;8.70;99.90;;;;;;5013034;28;20030;-74
2021/11/14 10:35:37;;;;;;;29.27;17.90;;;8.70;99.90;;;;;;5033055;28;20037;-74
2021/11/14 10:38:09;;;;;;;27.17;18.30;;;8.70;99.90;;;;;;5019465;28;20543;-74
2021/11/14 10:40:38;;;;;;;25.95;18.10;;;8.70;99.90;;;;;;5031502;28;20025;-74
2021/11/14 10:43:04;;;;;;;26.83;17.58;;;8.70;99.90;;;;;;5017347;28;20532;-74
2021/11/14 10:45:33;;;;;;;23.10;16.15;;;8.80;99.90;;;;;;5022314;28;20025;-74
2021/11/14 10:48:01;;;;;;;27.65;18.88;;;8.80;99.90;;;;;;5015051;28;20100;-74
2021/11/14 10:50:37;;;;;;;25.60;17.35;;;8.80;99.90;;;;;;5012923;28;20030;-74
2021/11/14 10:53:06;;;;;;;27.02;16.17;;;8.90;99.90;;;;;;5031200;28;20088;-75
2021/11/14 10:55:37;;;;;;;23.42;15.77;;;8.90;99.90;;;;;;5019635;28;20036;-74
2021/11/14 10:58:04;;;;;;;24.70;16.70;;;9.00;99.90;;;;;;5025916;28;20037;-74
2021/11/14 11:00:30;;;;;;;21.48;16.08;;;9.10;99.90;;;;;;5025180;28;20032;-74
2021/11/14 11:02:55;;;;;;;22.65;16.60;;;9.00;99.90;;;;;;5015034;28;20030;-74
2021/11/14 11:05:25;;;;;;;23.63;15.70;;;9.10;99.90;;;;;;5018044;28;20183;-74
2021/11/14 11:07:57;;;;;;;21.27;15.50;;;9.10;99.90;;;;;;5030513;28;20029;-75
2021/11/14 11:10:31;;;;;;;23.40;16.58;;;9.10;99.90;;;;;;5032324;28;20093;-74
2021/11/14 11:12:57;;;;;;;22.90;16.40;;;9.20;99.90;;;;;;5024561;28;20022;-74
2021/11/14 11:15:23;;;;;;;25.52;16.77;;;9.20;99.90;;;;;;5028418;28;20026;-73
2021/11/14 11:17:53;;;;;;;24.15;17.08;;;9.30;99.90;;;;;;5028877;28;20055;-74
2021/11/14 11:20:23;;;;;;;26.10;16.33;;;9.30;99.90;;;;;;5030163;28;20373;-74
2021/11/14 11:23:04;;;;;;;26.08;16.85;;;9.30;99.90;;;;;;5032406;28;20013;-74
2021/11/14 11:25:48;;;;;;;25.25;17.70;;;9.30;99.90;;;;;;5039857;28;20044;-74
2021/11/14 11:28:32;;;;;;;24.63;16.70;;;9.30;99.90;;;;;;5032762;28;20025;-74
2021/11/14 11:31:06;;;;;;;24.52;16.73;;;9.30;99.90;;;;;;5035722;28;20029;-74
2021/11/14 11:33:37;;;;;;;23.27;17.02;;;9.30;99.90;;;;;;5038757;28;20049;-74
2021/11/14 11:36:05;;;;;;;25.60;16.67;;;9.30;99.90;;;;;;5043954;28;20025;-74
2021/11/14 11:38:31;;;;;;;22.38;16.00;;;9.30;99.90;;;;;;5028125;28;20032;-74
2021/11/14 11:40:58;;;;;;;22.05;16.25;;;9.30;99.90;;;;;;5030877;28;20017;-74
2021/11/14 11:43:24;;;;;;;21.92;16.08;;;9.40;99.90;;;;;;5032704;28;20032;-72
2021/11/14 11:45:59;;;;;;;25.92;17.98;;;9.50;99.90;;;;;;5023226;28;20093;-74
2021/11/14 11:48:29;;;;;;;22.63;15.82;;;9.50;99.90;;;;;;5041126;28;20025;-74
2021/11/14 11:51:06;;;;;;;19.63;15.02;;;9.50;99.90;;;;;;5042945;28;20091;-74
2021/11/14 11:53:32;;;;;;;21.48;16.13;;;9.60;99.90;;;;;;5043321;28;20514;-75
2021/11/14 11:56:16;;;;;;;20.77;15.82;;;9.70;99.90;;;;;;5040170;28;20025;-75
2021/11/14 11:58:52;;;;;;;21.92;15.35;;;9.70;99.90;;;;;;5024738;28;20029;-74
2021/11/14 12:01:42;;;;;;;22.40;16.02;;;9.70;99.90;;;;;;5038482;28;20092;-73
2021/11/14 12:04:20;;;;;;;21.38;16.35;;;9.60;99.90;;;;;;5043580;28;20095;-73
2021/11/14 12:06:55;;;;;;;23.30;16.67;;;9.80;99.90;;;;;;5033534;28;20017;-73
2021/11/14 12:09:22;;;;;;;21.50;14.82;;;9.80;99.90;;;;;;5043271;28;20017;-73
2021/11/14 12:11:49;;;;;;;20.50;13.82;;;9.80;99.90;;;;;;5038614;28;20024;-73
2021/11/14 12:14:28;;;;;;;20.83;14.40;;;9.90;99.90;;;;;;5047067;28;20506;-75
2021/11/14 12:16:55;;;;;;;18.40;13.70;;;9.80;99.90;;;;;;5046951;28;20103;-73
2021/11/14 12:19:24;;;;;;;17.90;13.45;;;9.80;99.90;;;;;;5043748;28;20029;-73
2021/11/14 12:22:00;;;;;;;17.98;12.70;;;9.80;99.90;;;;;;5041288;28;20017;-73
2021/11/14 12:24:26;;;;;;;;;;;9.80;99.90;;;;;;5040257;28;20061;-73
2021/11/14 12:26:52;;;;;;;19.20;14.15;;;9.80;99.90;;;;;;5045705;28;19952;-73
2021/11/14 12:29:31;;;;;;;20.75;14.15;;;9.80;99.90;;;;;;5042957;28;20049;-73
2021/11/14 12:31:59;;;;;;;17.83;14.55;;;9.80;99.90;;;;;;5044566;28;20021;-73
2021/11/14 12:34:30;;;;;;;19.60;15.55;;;9.80;99.90;;;;;;5046031;28;20025;-73
2021/11/14 12:37:12;;;;;;;21.08;15.38;;;9.70;99.90;;;;;;5044640;28;20403;-72
2021/11/14 12:39:41;;;;;;;21.95;16.48;;;9.70;99.90;;;;;;5038012;28;20017;-73